EGCCEKCH

Guest
Details From EGCC - Manchester Intl
To EKCH - Kastrup
Flight Number -
Tags decoded
Created
Modified
Stats Distance 590 nm / 1,092 km
Max Altitude 0 ft / 0 m
Waypoints 7
Social Downloads 0
Likes 0
Share VATSIM

Download

Looking for another format? Having issues loading an existing format? Contact us
Advertisement - Login to hide

Notes

Requested: EGCC OGDIN GOLUM RIDSI DESAS VENOM EKCH

Route

EGCC OGDIN GOLUM RIDSI DESAS VENOM EKCH

ID Type Via Altitude Latitude Longitude Leg Dist Tot Dist Heading (true) Name
O EGCC APT - 0 ft / 0 m 53.34714˚ -2.28395˚ - 0 nm - Manchester Intl
OGDIN FIX - 0 ft / 0 m 53.84694˚ 0.58083˚ 106 nm 106 nm 72° / 75° -
GOLUM FIX - 0 ft / 0 m 55.45000˚ 5.28333˚ 189 nm 296 nm 58° / 61° -
RIDSI FIX - 0 ft / 0 m 55.59167˚ 9.99417˚ 160 nm 456 nm 85° / 89° -
DESAS FIX - 0 ft / 0 m 55.61306˚ 13.16056˚ 107 nm 563 nm 88° / 91° -
VENOM FIX - 0 ft / 0 m 55.48500˚ 13.12944˚ 7 nm 571 nm 188° / 188° -
O EKCH APT - 0 ft / 0 m 55.61291˚ 12.64096˚ 18 nm 589 nm 295° / 295° Kastrup

Altitude Profile

Advertisement - Login to hide

Weather


0- 5 10 15 20 25 30 35+ Temperature / ° C

Clouds and Precipitation
Forecast for 2018-05-22 12:00 UTC. Updated 5 hours ago

Ground ~20,000 ft ~40,000 ft Winds

EGCC

Details ICAO EGCC (MAN)
Name Manchester Intl
Region United Kingdom
Timezone Europe/London (UTC+1.0)
Stats Elevation 257 ft / 78 m (AMSL)
Location 53.347141° -2.283954°
Runways 2
Magnetic Variation 1.393° W

METAR

EGCC 221620Z AUTO 07009KT 040V100 9999 NCD 19/08 Q1020 NOSIG

Decode

TAF

TAF EGCC 221057Z 2212/2318 04008KT 9999 FEW045 TEMPO 2219/2309 7000 PROB40 TEMPO 2300/2308 BKN012

Decode

Departure Runways

ID Width Length Bearing (true) Bearing (mag) Surface Threshold Offset Overrun Length
05L 151 ft / 46 m 9,981 ft / 3,042 m 50.99° 52.38° Asphalt 1,401 ft / 427 m 0 ft / 0 m
05R 151 ft / 46 m 9,952 ft / 3,033 m 50.97° 52.36° Asphalt 0 ft / 0 m 26 ft / 8 m
23L 151 ft / 46 m 9,952 ft / 3,033 m 231.00° 232.39° Asphalt 561 ft / 171 m 0 ft / 0 m
23R 151 ft / 46 m 9,981 ft / 3,042 m 231.02° 232.41° Asphalt 597 ft / 182 m 0 ft / 0 m

EKCH

Details ICAO EKCH (CPH)
Name Kastrup
Region Denmark / Faroe Islands
Timezone Europe/Copenhagen (UTC+2.0)
Stats Elevation 17 ft / 5 m (AMSL)
Location 55.612915° 12.640961°
Runways 3
Magnetic Variation 3.788° E

METAR

EKCH 221620Z 18008KT CAVOK 19/10 Q1018 NOSIG

Decode

TAF

TAF EKCH 221101Z 2212/2312 07008KT CAVOK= TAF EKBI 221059Z 2212/2312 09008KT CAVOK

Decode

Destination Runways

ID Width Length Bearing (true) Bearing (mag) Surface Threshold Offset Overrun Length
04L 148 ft / 45 m 11,848 ft / 3,611 m 41.15° 37.36° Asphalt 0 ft / 0 m 0 ft / 0 m
04R 148 ft / 45 m 10,814 ft / 3,296 m 41.15° 37.36° Asphalt 0 ft / 0 m 0 ft / 0 m
12 148 ft / 45 m 10,047 ft / 3,063 m 123.21° 119.42° Asphalt 2,313 ft / 705 m 0 ft / 0 m
22L 148 ft / 45 m 10,814 ft / 3,296 m 221.17° 217.38° Asphalt 0 ft / 0 m 0 ft / 0 m
22R 148 ft / 45 m 11,848 ft / 3,611 m 221.18° 217.39° Asphalt 2,018 ft / 615 m 0 ft / 0 m
30 148 ft / 45 m 10,047 ft / 3,063 m 303.25° 299.46° Asphalt 886 ft / 270 m 0 ft / 0 m

Approach Navaids

Runway Type Ident Frequency Range Bearing (true) Bearing (mag) Slope Elevation
04L Localiser CH 110.50 MHz 18 nm / 33 km 41.16° 37.37° - 17 ft / 5 m (AMSL)
04L Glidescope CH 110.50 MHz 10 nm / 19 km 41.16° 37.37° 3.00° 17 ft / 5 m (AMSL)
04L DME CH 110.50 MHz 18 nm / 33 km - - - 14 ft / 4 m (AMSL)
04R Localiser NE 109.30 MHz 18 nm / 33 km 41.18° 37.39° - 17 ft / 5 m (AMSL)
04R Glidescope NE 109.30 MHz 10 nm / 19 km 41.16° 37.37° 3.00° 17 ft / 5 m (AMSL)
12 Localiser KA 109.90 MHz 18 nm / 33 km 123.25° 119.46° - 17 ft / 5 m (AMSL)
12 Glidescope KA 109.90 MHz 10 nm / 19 km 123.23° 119.44° 3.00° 17 ft / 5 m (AMSL)
12 DME KA 109.90 MHz 18 nm / 33 km - - - 14 ft / 4 m (AMSL)
22L Localiser OXS 109.50 MHz 18 nm / 33 km 221.14° 217.35° - 17 ft / 5 m (AMSL)
22L Glidescope OXS 109.50 MHz 10 nm / 19 km 221.16° 217.37° 3.00° 17 ft / 5 m (AMSL)
22L DME OXS 109.50 MHz 18 nm / 33 km - - - 7 ft / 2 m (AMSL)
22R Localiser KLK 110.90 MHz 18 nm / 33 km 221.14° 217.36° - 17 ft / 5 m (AMSL)
22R Glidescope KLK 110.90 MHz 10 nm / 19 km 221.16° 217.37° 3.00° 17 ft / 5 m (AMSL)
22R DME KLK 110.90 MHz 18 nm / 33 km - - - 14 ft / 4 m (AMSL)
30 Localiser OY 108.90 MHz 18 nm / 33 km 303.23° 299.44° - 17 ft / 5 m (AMSL)
30 Glidescope OY 108.90 MHz 10 nm / 19 km 303.23° 299.44° 3.00° 17 ft / 5 m (AMSL)
30 DME OY 108.90 MHz 18 nm / 33 km - - - 9 ft / 3 m (AMSL)

Popular Alternatives